sensor_id;sensor_type;location;lat;lon;timestamp;P1;durP1;ratioP1;P2;durP2;ratioP2
20976;SDS011;10647;51.016;3.720;2022-10-16T00:01:54;1.60;;;1.10;;
20976;SDS011;10647;51.016;3.720;2022-10-16T00:04:23;3.37;;;1.37;;
20976;SDS011;10647;51.016;3.720;2022-10-16T00:06:50;2.43;;;1.27;;
20976;SDS011;10647;51.016;3.720;2022-10-16T00:09:18;2.93;;;1.47;;
20976;SDS011;10647;51.016;3.720;2022-10-16T00:11:45;2.60;;;1.40;;
20976;SDS011;10647;51.016;3.720;2022-10-16T00:14:14;2.90;;;1.40;;
20976;SDS011;10647;51.016;3.720;2022-10-16T00:16:42;3.63;;;1.30;;
20976;SDS011;10647;51.016;3.720;2022-10-16T00:19:10;2.50;;;1.40;;
20976;SDS011;10647;51.016;3.720;2022-10-16T00:21:38;2.57;;;1.37;;
20976;SDS011;10647;51.016;3.720;2022-10-16T00:24:07;2.27;;;1.57;;
20976;SDS011;10647;51.016;3.720;2022-10-16T00:26:36;2.37;;;1.17;;
20976;SDS011;10647;51.016;3.720;2022-10-16T00:29:05;2.00;;;1.20;;
20976;SDS011;10647;51.016;3.720;2022-10-16T00:31:33;5.17;;;1.30;;
20976;SDS011;10647;51.016;3.720;2022-10-16T00:34:01;2.57;;;1.27;;
20976;SDS011;10647;51.016;3.720;2022-10-16T00:36:29;5.03;;;1.20;;
20976;SDS011;10647;51.016;3.720;2022-10-16T00:38:58;5.10;;;1.30;;
20976;SDS011;10647;51.016;3.720;2022-10-16T00:41:26;2.93;;;1.00;;
20976;SDS011;10647;51.016;3.720;2022-10-16T00:43:56;2.00;;;1.13;;
20976;SDS011;10647;51.016;3.720;2022-10-16T00:46:26;1.40;;;1.00;;
20976;SDS011;10647;51.016;3.720;2022-10-16T00:49:11;3.30;;;1.10;;
20976;SDS011;10647;51.016;3.720;2022-10-16T00:51:53;2.10;;;1.10;;
20976;SDS011;10647;51.016;3.720;2022-10-16T00:54:29;1.83;;;0.90;;
20976;SDS011;10647;51.016;3.720;2022-10-16T00:57:05;4.27;;;0.97;;
20976;SDS011;10647;51.016;3.720;2022-10-16T00:59:36;2.73;;;1.00;;
20976;SDS011;10647;51.016;3.720;2022-10-16T01:02:05;2.80;;;0.90;;
20976;SDS011;10647;51.016;3.720;2022-10-16T01:04:35;3.10;;;1.03;;
20976;SDS011;10647;51.016;3.720;2022-10-16T01:07:16;3.87;;;1.00;;
20976;SDS011;10647;51.016;3.720;2022-10-16T01:13:09;4.50;;;0.93;;
20976;SDS011;10647;51.016;3.720;2022-10-16T01:18:28;3.30;;;1.00;;
20976;SDS011;10647;51.016;3.720;2022-10-16T01:21:07;4.97;;;1.20;;
20976;SDS011;10647;51.016;3.720;2022-10-16T01:32:16;4.63;;;1.07;;
20976;SDS011;10647;51.016;3.720;2022-10-16T01:35:09;5.50;;;1.07;;
20976;SDS011;10647;51.016;3.720;2022-10-16T01:37:51;2.87;;;1.10;;
20976;SDS011;10647;51.016;3.720;2022-10-16T01:40:26;3.80;;;1.00;;
20976;SDS011;10647;51.016;3.720;2022-10-16T01:43:02;1.70;;;0.90;;
20976;SDS011;10647;51.016;3.720;2022-10-16T01:45:31;2.07;;;1.00;;
20976;SDS011;10647;51.016;3.720;2022-10-16T01:48:01;3.60;;;1.33;;
20976;SDS011;10647;51.016;3.720;2022-10-16T01:50:33;3.80;;;1.10;;
20976;SDS011;10647;51.016;3.720;2022-10-16T01:53:03;1.83;;;1.20;;
20976;SDS011;10647;51.016;3.720;2022-10-16T01:55:35;3.10;;;1.57;;
20976;SDS011;10647;51.016;3.720;2022-10-16T01:58:04;2.07;;;1.00;;
20976;SDS011;10647;51.016;3.720;2022-10-16T02:00:36;3.20;;;1.00;;
20976;SDS011;10647;51.016;3.720;2022-10-16T02:03:04;3.90;;;1.23;;
20976;SDS011;10647;51.016;3.720;2022-10-16T02:05:41;2.17;;;1.13;;
20976;SDS011;10647;51.016;3.720;2022-10-16T02:08:28;4.17;;;1.20;;
20976;SDS011;10647;51.016;3.720;2022-10-16T02:10:57;2.43;;;1.20;;
20976;SDS011;10647;51.016;3.720;2022-10-16T02:16:13;2.93;;;1.20;;
20976;SDS011;10647;51.016;3.720;2022-10-16T02:18:41;4.50;;;1.30;;
20976;SDS011;10647;51.016;3.720;2022-10-16T02:21:56;2.57;;;1.20;;
20976;SDS011;10647;51.016;3.720;2022-10-16T02:23:51;2.93;;;1.20;;
20976;SDS011;10647;51.016;3.720;2022-10-16T02:26:38;4.67;;;1.33;;
20976;SDS011;10647;51.016;3.720;2022-10-16T02:29:10;3.13;;;1.30;;
20976;SDS011;10647;51.016;3.720;2022-10-16T02:31:41;4.20;;;1.50;;
20976;SDS011;10647;51.016;3.720;2022-10-16T02:34:09;2.93;;;1.40;;
20976;SDS011;10647;51.016;3.720;2022-10-16T02:36:39;2.60;;;1.10;;
20976;SDS011;10647;51.016;3.720;2022-10-16T02:39:08;2.97;;;1.67;;
20976;SDS011;10647;51.016;3.720;2022-10-16T02:41:37;2.40;;;1.27;;
20976;SDS011;10647;51.016;3.720;2022-10-16T02:44:05;3.50;;;1.73;;
20976;SDS011;10647;51.016;3.720;2022-10-16T02:46:33;6.13;;;1.43;;
20976;SDS011;10647;51.016;3.720;2022-10-16T02:49:00;2.20;;;1.20;;
20976;SDS011;10647;51.016;3.720;2022-10-16T02:51:27;5.03;;;1.47;;
20976;SDS011;10647;51.016;3.720;2022-10-16T02:53:55;3.13;;;1.30;;
20976;SDS011;10647;51.016;3.720;2022-10-16T02:56:23;3.23;;;1.30;;
20976;SDS011;10647;51.016;3.720;2022-10-16T02:58:50;6.53;;;1.30;;
20976;SDS011;10647;51.016;3.720;2022-10-16T03:01:20;4.80;;;1.50;;
20976;SDS011;10647;51.016;3.720;2022-10-16T03:03:47;3.10;;;1.30;;
20976;SDS011;10647;51.016;3.720;2022-10-16T03:06:15;6.77;;;1.60;;
20976;SDS011;10647;51.016;3.720;2022-10-16T03:08:42;2.40;;;1.30;;
20976;SDS011;10647;51.016;3.720;2022-10-16T03:11:10;4.80;;;1.30;;
20976;SDS011;10647;51.016;3.720;2022-10-16T03:13:37;5.13;;;1.40;;
20976;SDS011;10647;51.016;3.720;2022-10-16T03:16:04;5.63;;;1.43;;
20976;SDS011;10647;51.016;3.720;2022-10-16T03:18:32;4.73;;;1.13;;
20976;SDS011;10647;51.016;3.720;2022-10-16T03:20:59;3.87;;;1.23;;
20976;SDS011;10647;51.016;3.720;2022-10-16T03:23:27;3.70;;;1.40;;
20976;SDS011;10647;51.016;3.720;2022-10-16T03:25:54;5.23;;;1.60;;
20976;SDS011;10647;51.016;3.720;2022-10-16T03:28:22;2.33;;;1.30;;
20976;SDS011;10647;51.016;3.720;2022-10-16T03:30:49;4.67;;;1.33;;
20976;SDS011;10647;51.016;3.720;2022-10-16T03:33:17;3.93;;;1.37;;
20976;SDS011;10647;51.016;3.720;2022-10-16T03:35:50;6.30;;;1.50;;
20976;SDS011;10647;51.016;3.720;2022-10-16T03:38:40;5.73;;;1.50;;
20976;SDS011;10647;51.016;3.720;2022-10-16T03:41:08;7.97;;;1.77;;
20976;SDS011;10647;51.016;3.720;2022-10-16T03:43:35;3.80;;;1.50;;
20976;SDS011;10647;51.016;3.720;2022-10-16T03:46:03;3.97;;;1.60;;
20976;SDS011;10647;51.016;3.720;2022-10-16T03:48:30;6.03;;;1.87;;
20976;SDS011;10647;51.016;3.720;2022-10-16T03:50:58;2.77;;;1.33;;
20976;SDS011;10647;51.016;3.720;2022-10-16T03:53:26;3.57;;;1.50;;
20976;SDS011;10647;51.016;3.720;2022-10-16T03:55:53;3.60;;;1.70;;
20976;SDS011;10647;51.016;3.720;2022-10-16T03:58:21;3.47;;;1.50;;
20976;SDS011;10647;51.016;3.720;2022-10-16T04:00:48;4.20;;;1.73;;
20976;SDS011;10647;51.016;3.720;2022-10-16T04:03:16;4.23;;;1.80;;
20976;SDS011;10647;51.016;3.720;2022-10-16T04:05:44;2.87;;;1.60;;
20976;SDS011;10647;51.016;3.720;2022-10-16T04:08:12;5.23;;;1.73;;
20976;SDS011;10647;51.016;3.720;2022-10-16T04:10:39;6.40;;;1.77;;
20976;SDS011;10647;51.016;3.720;2022-10-16T04:13:09;3.20;;;1.90;;
20976;SDS011;10647;51.016;3.720;2022-10-16T04:15:38;6.27;;;2.07;;
20976;SDS011;10647;51.016;3.720;2022-10-16T04:18:05;5.47;;;2.00;;
20976;SDS011;10647;51.016;3.720;2022-10-16T04:20:33;5.77;;;2.00;;
20976;SDS011;10647;51.016;3.720;2022-10-16T04:23:01;5.40;;;2.00;;
20976;SDS011;10647;51.016;3.720;2022-10-16T04:25:29;6.07;;;1.90;;
20976;SDS011;10647;51.016;3.720;2022-10-16T04:27:57;5.63;;;1.80;;
20976;SDS011;10647;51.016;3.720;2022-10-16T04:30:25;4.53;;;2.00;;
20976;SDS011;10647;51.016;3.720;2022-10-16T04:32:52;4.07;;;2.00;;
20976;SDS011;10647;51.016;3.720;2022-10-16T04:35:20;3.23;;;1.80;;
20976;SDS011;10647;51.016;3.720;2022-10-16T04:37:48;6.43;;;2.00;;
20976;SDS011;10647;51.016;3.720;2022-10-16T04:40:16;6.13;;;2.33;;
20976;SDS011;10647;51.016;3.720;2022-10-16T04:42:44;6.30;;;2.27;;
20976;SDS011;10647;51.016;3.720;2022-10-16T04:45:11;4.17;;;1.90;;
20976;SDS011;10647;51.016;3.720;2022-10-16T04:47:39;3.57;;;1.90;;
20976;SDS011;10647;51.016;3.720;2022-10-16T04:50:07;6.33;;;2.13;;
20976;SDS011;10647;51.016;3.720;2022-10-16T04:55:21;7.23;;;1.80;;
20976;SDS011;10647;51.016;3.720;2022-10-16T04:57:49;6.53;;;1.93;;
20976;SDS011;10647;51.016;3.720;2022-10-16T05:00:16;5.47;;;1.80;;
20976;SDS011;10647;51.016;3.720;2022-10-16T05:02:44;3.57;;;1.90;;
20976;SDS011;10647;51.016;3.720;2022-10-16T05:05:11;4.50;;;2.00;;
20976;SDS011;10647;51.016;3.720;2022-10-16T05:07:40;5.17;;;1.80;;
20976;SDS011;10647;51.016;3.720;2022-10-16T05:10:07;4.97;;;1.93;;
20976;SDS011;10647;51.016;3.720;2022-10-16T05:12:35;8.30;;;1.93;;
20976;SDS011;10647;51.016;3.720;2022-10-16T05:15:02;8.07;;;2.10;;
20976;SDS011;10647;51.016;3.720;2022-10-16T05:17:30;4.60;;;2.00;;
20976;SDS011;10647;51.016;3.720;2022-10-16T05:19:58;6.40;;;1.70;;
20976;SDS011;10647;51.016;3.720;2022-10-16T05:22:25;4.97;;;1.90;;
20976;SDS011;10647;51.016;3.720;2022-10-16T05:24:53;4.47;;;1.80;;
20976;SDS011;10647;51.016;3.720;2022-10-16T05:27:20;3.60;;;1.73;;
20976;SDS011;10647;51.016;3.720;2022-10-16T05:29:48;4.40;;;1.60;;
20976;SDS011;10647;51.016;3.720;2022-10-16T05:32:16;5.70;;;1.80;;
20976;SDS011;10647;51.016;3.720;2022-10-16T05:34:44;5.93;;;1.90;;
20976;SDS011;10647;51.016;3.720;2022-10-16T05:37:12;5.17;;;1.73;;
20976;SDS011;10647;51.016;3.720;2022-10-16T05:39:39;5.50;;;1.60;;
20976;SDS011;10647;51.016;3.720;2022-10-16T05:42:07;3.43;;;1.40;;
20976;SDS011;10647;51.016;3.720;2022-10-16T05:44:34;3.80;;;1.63;;
20976;SDS011;10647;51.016;3.720;2022-10-16T05:47:02;4.83;;;1.80;;
20976;SDS011;10647;51.016;3.720;2022-10-16T05:49:29;5.90;;;1.87;;
20976;SDS011;10647;51.016;3.720;2022-10-16T05:51:57;4.03;;;1.70;;
20976;SDS011;10647;51.016;3.720;2022-10-16T05:54:24;3.50;;;1.90;;
20976;SDS011;10647;51.016;3.720;2022-10-16T05:56:52;4.00;;;1.60;;
20976;SDS011;10647;51.016;3.720;2022-10-16T05:59:20;4.80;;;1.73;;
20976;SDS011;10647;51.016;3.720;2022-10-16T06:01:48;5.47;;;2.00;;
20976;SDS011;10647;51.016;3.720;2022-10-16T06:04:15;5.63;;;1.90;;
20976;SDS011;10647;51.016;3.720;2022-10-16T06:06:43;4.00;;;1.80;;
20976;SDS011;10647;51.016;3.720;2022-10-16T06:09:10;6.83;;;1.90;;
20976;SDS011;10647;51.016;3.720;2022-10-16T06:11:38;6.80;;;2.00;;
20976;SDS011;10647;51.016;3.720;2022-10-16T06:14:05;5.83;;;1.97;;
20976;SDS011;10647;51.016;3.720;2022-10-16T06:16:35;6.20;;;2.57;;
20976;SDS011;10647;51.016;3.720;2022-10-16T06:19:03;4.77;;;1.90;;
20976;SDS011;10647;51.016;3.720;2022-10-16T06:21:35;6.63;;;2.10;;
20976;SDS011;10647;51.016;3.720;2022-10-16T06:24:03;8.03;;;2.30;;
20976;SDS011;10647;51.016;3.720;2022-10-16T06:26:31;3.40;;;2.00;;
20976;SDS011;10647;51.016;3.720;2022-10-16T06:28:59;4.87;;;2.40;;
20976;SDS011;10647;51.016;3.720;2022-10-16T06:31:26;5.87;;;2.20;;
20976;SDS011;10647;51.016;3.720;2022-10-16T06:33:56;6.43;;;2.13;;
20976;SDS011;10647;51.016;3.720;2022-10-16T06:36:25;5.40;;;2.10;;
20976;SDS011;10647;51.016;3.720;2022-10-16T06:38:53;6.10;;;2.10;;
20976;SDS011;10647;51.016;3.720;2022-10-16T06:41:22;6.77;;;2.20;;
20976;SDS011;10647;51.016;3.720;2022-10-16T06:44:10;7.77;;;1.90;;
20976;SDS011;10647;51.016;3.720;2022-10-16T06:46:37;4.23;;;2.10;;
20976;SDS011;10647;51.016;3.720;2022-10-16T06:49:04;4.13;;;1.97;;
20976;SDS011;10647;51.016;3.720;2022-10-16T06:51:32;5.87;;;2.17;;
20976;SDS011;10647;51.016;3.720;2022-10-16T06:54:01;6.87;;;2.20;;
20976;SDS011;10647;51.016;3.720;2022-10-16T06:56:29;4.67;;;2.00;;
20976;SDS011;10647;51.016;3.720;2022-10-16T06:58:58;6.37;;;2.20;;
20976;SDS011;10647;51.016;3.720;2022-10-16T07:01:27;5.40;;;2.17;;
20976;SDS011;10647;51.016;3.720;2022-10-16T07:03:55;7.23;;;2.30;;
20976;SDS011;10647;51.016;3.720;2022-10-16T07:06:24;5.77;;;2.30;;
20976;SDS011;10647;51.016;3.720;2022-10-16T07:08:52;7.03;;;2.10;;
20976;SDS011;10647;51.016;3.720;2022-10-16T07:11:21;4.03;;;1.93;;
20976;SDS011;10647;51.016;3.720;2022-10-16T07:13:50;7.97;;;2.07;;
20976;SDS011;10647;51.016;3.720;2022-10-16T07:16:19;6.00;;;2.20;;
20976;SDS011;10647;51.016;3.720;2022-10-16T07:18:51;4.83;;;1.90;;
20976;SDS011;10647;51.016;3.720;2022-10-16T07:21:23;4.90;;;2.00;;
20976;SDS011;10647;51.016;3.720;2022-10-16T07:23:53;5.13;;;2.00;;
20976;SDS011;10647;51.016;3.720;2022-10-16T07:26:23;5.57;;;1.90;;
20976;SDS011;10647;51.016;3.720;2022-10-16T07:31:24;5.40;;;1.90;;
20976;SDS011;10647;51.016;3.720;2022-10-16T07:34:16;7.13;;;2.17;;
20976;SDS011;10647;51.016;3.720;2022-10-16T07:36:47;5.93;;;2.00;;
20976;SDS011;10647;51.016;3.720;2022-10-16T07:39:21;5.10;;;1.70;;
20976;SDS011;10647;51.016;3.720;2022-10-16T07:41:50;7.23;;;1.93;;
20976;SDS011;10647;51.016;3.720;2022-10-16T07:44:18;5.97;;;2.00;;
20976;SDS011;10647;51.016;3.720;2022-10-16T07:46:45;5.50;;;1.93;;
20976;SDS011;10647;51.016;3.720;2022-10-16T07:49:14;3.23;;;1.80;;
20976;SDS011;10647;51.016;3.720;2022-10-16T07:51:41;4.03;;;1.53;;
20976;SDS011;10647;51.016;3.720;2022-10-16T07:54:09;5.90;;;2.00;;
20976;SDS011;10647;51.016;3.720;2022-10-16T07:56:37;3.57;;;1.60;;
20976;SDS011;10647;51.016;3.720;2022-10-16T07:59:04;4.47;;;1.90;;
20976;SDS011;10647;51.016;3.720;2022-10-16T08:01:32;4.67;;;1.40;;
20976;SDS011;10647;51.016;3.720;2022-10-16T08:04:01;3.00;;;1.33;;
20976;SDS011;10647;51.016;3.720;2022-10-16T08:06:29;9.70;;;1.63;;
20976;SDS011;10647;51.016;3.720;2022-10-16T08:08:59;7.63;;;1.80;;
20976;SDS011;10647;51.016;3.720;2022-10-16T08:11:27;6.40;;;1.63;;
20976;SDS011;10647;51.016;3.720;2022-10-16T08:13:54;5.27;;;1.60;;
20976;SDS011;10647;51.016;3.720;2022-10-16T08:16:23;5.70;;;1.60;;
20976;SDS011;10647;51.016;3.720;2022-10-16T08:18:51;6.53;;;1.57;;
20976;SDS011;10647;51.016;3.720;2022-10-16T08:21:20;4.67;;;1.90;;
20976;SDS011;10647;51.016;3.720;2022-10-16T08:23:52;6.17;;;1.60;;
20976;SDS011;10647;51.016;3.720;2022-10-16T08:26:27;5.97;;;1.60;;
20976;SDS011;10647;51.016;3.720;2022-10-16T08:28:55;8.90;;;1.87;;
20976;SDS011;10647;51.016;3.720;2022-10-16T08:31:23;4.60;;;1.80;;
20976;SDS011;10647;51.016;3.720;2022-10-16T08:33:52;8.70;;;1.60;;
20976;SDS011;10647;51.016;3.720;2022-10-16T08:36:20;6.70;;;1.50;;
20976;SDS011;10647;51.016;3.720;2022-10-16T08:38:48;6.13;;;1.40;;
20976;SDS011;10647;51.016;3.720;2022-10-16T08:41:21;8.73;;;1.73;;
20976;SDS011;10647;51.016;3.720;2022-10-16T08:50:08;6.17;;;2.03;;
20976;SDS011;10647;51.016;3.720;2022-10-16T08:55:27;6.53;;;1.93;;
20976;SDS011;10647;51.016;3.720;2022-10-16T08:58:00;5.47;;;1.63;;
20976;SDS011;10647;51.016;3.720;2022-10-16T09:00:28;3.20;;;1.40;;
20976;SDS011;10647;51.016;3.720;2022-10-16T09:03:03;6.57;;;1.70;;
20976;SDS011;10647;51.016;3.720;2022-10-16T09:05:49;7.70;;;1.60;;
20976;SDS011;10647;51.016;3.720;2022-10-16T09:08:36;9.07;;;2.07;;
20976;SDS011;10647;51.016;3.720;2022-10-16T09:11:14;6.37;;;1.40;;
20976;SDS011;10647;51.016;3.720;2022-10-16T09:17:00;5.40;;;1.40;;
20976;SDS011;10647;51.016;3.720;2022-10-16T09:19:30;6.63;;;1.20;;
20976;SDS011;10647;51.016;3.720;2022-10-16T09:21:59;4.93;;;1.30;;
20976;SDS011;10647;51.016;3.720;2022-10-16T09:24:34;7.87;;;1.73;;
20976;SDS011;10647;51.016;3.720;2022-10-16T09:27:03;6.57;;;1.40;;
20976;SDS011;10647;51.016;3.720;2022-10-16T09:29:30;8.13;;;1.63;;
20976;SDS011;10647;51.016;3.720;2022-10-16T09:32:09;11.83;;;1.80;;
20976;SDS011;10647;51.016;3.720;2022-10-16T09:34:39;7.47;;;1.47;;
20976;SDS011;10647;51.016;3.720;2022-10-16T09:37:12;9.20;;;1.47;;
20976;SDS011;10647;51.016;3.720;2022-10-16T09:42:34;4.63;;;1.40;;
20976;SDS011;10647;51.016;3.720;2022-10-16T09:44:58;4.97;;;1.40;;
20976;SDS011;10647;51.016;3.720;2022-10-16T09:47:26;9.20;;;1.30;;
20976;SDS011;10647;51.016;3.720;2022-10-16T09:49:57;8.50;;;1.77;;
20976;SDS011;10647;51.016;3.720;2022-10-16T09:52:28;7.70;;;1.47;;
20976;SDS011;10647;51.016;3.720;2022-10-16T09:54:57;5.40;;;1.53;;
20976;SDS011;10647;51.016;3.720;2022-10-16T09:57:29;12.33;;;1.80;;
20976;SDS011;10647;51.016;3.720;2022-10-16T09:59:57;8.83;;;1.30;;
20976;SDS011;10647;51.016;3.720;2022-10-16T10:02:29;9.03;;;2.10;;
20976;SDS011;10647;51.016;3.720;2022-10-16T10:04:59;8.50;;;1.67;;
20976;SDS011;10647;51.016;3.720;2022-10-16T10:07:35;10.45;;;2.00;;
20976;SDS011;10647;51.016;3.720;2022-10-16T10:10:00;7.10;;;1.62;;
20976;SDS011;10647;51.016;3.720;2022-10-16T10:12:30;10.68;;;1.35;;
20976;SDS011;10647;51.016;3.720;2022-10-16T10:15:14;6.62;;;1.50;;
20976;SDS011;10647;51.016;3.720;2022-10-16T10:18:02;7.50;;;1.40;;
20976;SDS011;10647;51.016;3.720;2022-10-16T10:20:24;7.80;;;1.52;;
20976;SDS011;10647;51.016;3.720;2022-10-16T10:22:57;8.50;;;1.80;;
20976;SDS011;10647;51.016;3.720;2022-10-16T10:25:37;6.30;;;1.60;;
20976;SDS011;10647;51.016;3.720;2022-10-16T10:28:07;10.45;;;1.75;;
20976;SDS011;10647;51.016;3.720;2022-10-16T10:30:54;9.08;;;1.57;;
20976;SDS011;10647;51.016;3.720;2022-10-16T10:33:44;7.17;;;1.42;;
20976;SDS011;10647;51.016;3.720;2022-10-16T10:36:39;13.65;;;2.02;;
20976;SDS011;10647;51.016;3.720;2022-10-16T10:38:58;7.60;;;1.70;;
20976;SDS011;10647;51.016;3.720;2022-10-16T10:50:02;12.25;;;1.82;;
20976;SDS011;10647;51.016;3.720;2022-10-16T10:52:41;9.95;;;1.50;;
20976;SDS011;10647;51.016;3.720;2022-10-16T10:55:14;10.25;;;1.40;;
20976;SDS011;10647;51.016;3.720;2022-10-16T11:08:43;9.10;;;1.55;;
20976;SDS011;10647;51.016;3.720;2022-10-16T11:11:16;12.63;;;1.75;;
20976;SDS011;10647;51.016;3.720;2022-10-16T11:14:05;8.90;;;1.30;;
20976;SDS011;10647;51.016;3.720;2022-10-16T11:16:38;9.70;;;1.70;;
20976;SDS011;10647;51.016;3.720;2022-10-16T11:19:22;7.87;;;1.67;;
20976;SDS011;10647;51.016;3.720;2022-10-16T11:22:00;6.47;;;1.35;;
20976;SDS011;10647;51.016;3.720;2022-10-16T11:27:54;8.98;;;1.40;;
20976;SDS011;10647;51.016;3.720;2022-10-16T11:30:05;13.20;;;1.80;;
20976;SDS011;10647;51.016;3.720;2022-10-16T11:32:38;7.45;;;1.40;;
20976;SDS011;10647;51.016;3.720;2022-10-16T11:35:13;10.93;;;1.85;;
20976;SDS011;10647;51.016;3.720;2022-10-16T11:40:37;5.90;;;1.17;;
20976;SDS011;10647;51.016;3.720;2022-10-16T11:43:13;6.37;;;1.60;;
20976;SDS011;10647;51.016;3.720;2022-10-16T11:45:45;5.97;;;1.40;;
20976;SDS011;10647;51.016;3.720;2022-10-16T11:48:20;5.55;;;1.65;;
20976;SDS011;10647;51.016;3.720;2022-10-16T11:50:50;6.00;;;1.30;;
20976;SDS011;10647;51.016;3.720;2022-10-16T11:56:32;6.90;;;1.30;;
20976;SDS011;10647;51.016;3.720;2022-10-16T11:59:02;6.30;;;1.20;;
20976;SDS011;10647;51.016;3.720;2022-10-16T12:07:08;5.65;;;1.65;;
20976;SDS011;10647;51.016;3.720;2022-10-16T12:17:46;7.22;;;1.27;;
20976;SDS011;10647;51.016;3.720;2022-10-16T12:22:49;6.95;;;1.20;;
20976;SDS011;10647;51.016;3.720;2022-10-16T12:25:21;5.05;;;1.10;;
20976;SDS011;10647;51.016;3.720;2022-10-16T12:30:43;5.03;;;1.10;;
20976;SDS011;10647;51.016;3.720;2022-10-16T12:33:19;5.25;;;1.20;;
20976;SDS011;10647;51.016;3.720;2022-10-16T12:35:57;4.58;;;1.00;;
20976;SDS011;10647;51.016;3.720;2022-10-16T12:38:27;5.60;;;1.10;;
20976;SDS011;10647;51.016;3.720;2022-10-16T12:41:07;13.80;;;1.55;;
20976;SDS011;10647;51.016;3.720;2022-10-16T12:43:39;5.28;;;1.20;;
20976;SDS011;10647;51.016;3.720;2022-10-16T12:48:42;5.42;;;1.40;;
20976;SDS011;10647;51.016;3.720;2022-10-16T12:51:23;4.03;;;1.00;;
20976;SDS011;10647;51.016;3.720;2022-10-16T12:54:03;9.18;;;1.12;;
20976;SDS011;10647;51.016;3.720;2022-10-16T13:15:41;4.35;;;1.07;;
20976;SDS011;10647;51.016;3.720;2022-10-16T13:21:18;4.58;;;1.10;;
20976;SDS011;10647;51.016;3.720;2022-10-16T13:26:29;5.05;;;0.82;;
20976;SDS011;10647;51.016;3.720;2022-10-16T13:28:59;6.25;;;1.20;;
20976;SDS011;10647;51.016;3.720;2022-10-16T13:31:29;4.22;;;1.00;;
20976;SDS011;10647;51.016;3.720;2022-10-16T13:33:59;5.00;;;0.95;;
20976;SDS011;10647;51.016;3.720;2022-10-16T13:36:43;5.92;;;1.27;;
20976;SDS011;10647;51.016;3.720;2022-10-16T13:39:21;3.67;;;0.85;;
20976;SDS011;10647;51.016;3.720;2022-10-16T13:41:45;3.12;;;0.93;;
20976;SDS011;10647;51.016;3.720;2022-10-16T13:44:15;3.55;;;0.80;;
20976;SDS011;10647;51.016;3.720;2022-10-16T13:46:45;2.98;;;0.80;;
20976;SDS011;10647;51.016;3.720;2022-10-16T13:51:55;4.10;;;0.80;;
20976;SDS011;10647;51.016;3.720;2022-10-16T13:54:27;3.62;;;0.80;;
20976;SDS011;10647;51.016;3.720;2022-10-16T13:56:55;2.72;;;0.80;;
20976;SDS011;10647;51.016;3.720;2022-10-16T13:59:23;2.70;;;0.90;;
20976;SDS011;10647;51.016;3.720;2022-10-16T14:01:56;5.60;;;0.90;;
20976;SDS011;10647;51.016;3.720;2022-10-16T14:04:24;4.80;;;1.30;;
20976;SDS011;10647;51.016;3.720;2022-10-16T14:06:55;3.62;;;1.10;;
20976;SDS011;10647;51.016;3.720;2022-10-16T14:09:24;3.08;;;1.17;;
20976;SDS011;10647;51.016;3.720;2022-10-16T14:11:58;3.52;;;1.52;;
20976;SDS011;10647;51.016;3.720;2022-10-16T14:14:30;2.80;;;0.95;;
20976;SDS011;10647;51.016;3.720;2022-10-16T14:16:58;2.87;;;0.95;;
20976;SDS011;10647;51.016;3.720;2022-10-16T14:19:26;5.53;;;0.90;;
20976;SDS011;10647;51.016;3.720;2022-10-16T14:21:56;2.65;;;1.00;;
20976;SDS011;10647;51.016;3.720;2022-10-16T14:24:34;2.90;;;1.05;;
20976;SDS011;10647;51.016;3.720;2022-10-16T14:27:02;2.17;;;1.07;;
20976;SDS011;10647;51.016;3.720;2022-10-16T14:29:33;4.70;;;1.05;;
20976;SDS011;10647;51.016;3.720;2022-10-16T14:32:06;4.35;;;1.00;;
20976;SDS011;10647;51.016;3.720;2022-10-16T14:34:32;2.92;;;1.00;;
20976;SDS011;10647;51.016;3.720;2022-10-16T14:37:01;2.65;;;0.62;;
20976;SDS011;10647;51.016;3.720;2022-10-16T14:39:39;2.15;;;0.70;;
20976;SDS011;10647;51.016;3.720;2022-10-16T14:42:16;3.25;;;0.60;;
20976;SDS011;10647;51.016;3.720;2022-10-16T14:44:48;1.75;;;0.60;;
20976;SDS011;10647;51.016;3.720;2022-10-16T14:47:19;2.33;;;0.60;;
20976;SDS011;10647;51.016;3.720;2022-10-16T14:49:51;2.85;;;0.90;;
20976;SDS011;10647;51.016;3.720;2022-10-16T14:52:20;1.30;;;0.53;;
20976;SDS011;10647;51.016;3.720;2022-10-16T14:54:48;2.75;;;0.80;;
20976;SDS011;10647;51.016;3.720;2022-10-16T14:57:19;2.95;;;1.05;;
20976;SDS011;10647;51.016;3.720;2022-10-16T14:59:49;2.92;;;0.90;;
20976;SDS011;10647;51.016;3.720;2022-10-16T15:07:48;3.55;;;0.90;;
20976;SDS011;10647;51.016;3.720;2022-10-16T15:10:18;5.30;;;1.10;;
20976;SDS011;10647;51.016;3.720;2022-10-16T15:12:48;3.15;;;0.80;;
20976;SDS011;10647;51.016;3.720;2022-10-16T15:17:53;2.55;;;0.90;;
20976;SDS011;10647;51.016;3.720;2022-10-16T15:20:23;2.37;;;0.80;;
20976;SDS011;10647;51.016;3.720;2022-10-16T15:22:51;1.77;;;0.80;;
20976;SDS011;10647;51.016;3.720;2022-10-16T15:27:59;2.83;;;0.75;;
20976;SDS011;10647;51.016;3.720;2022-10-16T15:30:28;1.80;;;0.72;;
20976;SDS011;10647;51.016;3.720;2022-10-16T15:32:55;3.85;;;0.98;;
20976;SDS011;10647;51.016;3.720;2022-10-16T15:35:23;3.12;;;1.00;;
20976;SDS011;10647;51.016;3.720;2022-10-16T15:40:40;4.90;;;1.10;;
20976;SDS011;10647;51.016;3.720;2022-10-16T15:43:09;2.40;;;0.80;;
20976;SDS011;10647;51.016;3.720;2022-10-16T15:45:37;2.27;;;0.85;;
20976;SDS011;10647;51.016;3.720;2022-10-16T15:48:05;5.12;;;0.90;;
20976;SDS011;10647;51.016;3.720;2022-10-16T15:50:33;6.22;;;2.02;;
20976;SDS011;10647;51.016;3.720;2022-10-16T15:53:00;2.05;;;0.95;;
20976;SDS011;10647;51.016;3.720;2022-10-16T15:55:28;3.72;;;1.20;;
20976;SDS011;10647;51.016;3.720;2022-10-16T15:57:55;3.45;;;1.00;;
20976;SDS011;10647;51.016;3.720;2022-10-16T16:00:24;7.83;;;1.07;;
20976;SDS011;10647;51.016;3.720;2022-10-16T16:02:52;3.22;;;1.00;;
20976;SDS011;10647;51.016;3.720;2022-10-16T16:05:20;3.90;;;1.00;;
20976;SDS011;10647;51.016;3.720;2022-10-16T16:07:49;4.42;;;1.20;;
20976;SDS011;10647;51.016;3.720;2022-10-16T16:10:16;2.67;;;0.95;;
20976;SDS011;10647;51.016;3.720;2022-10-16T16:12:47;4.58;;;1.40;;
20976;SDS011;10647;51.016;3.720;2022-10-16T16:15:19;8.20;;;1.22;;
20976;SDS011;10647;51.016;3.720;2022-10-16T16:17:48;3.22;;;1.17;;
20976;SDS011;10647;51.016;3.720;2022-10-16T16:20:16;4.35;;;1.70;;
20976;SDS011;10647;51.016;3.720;2022-10-16T16:25:14;6.05;;;1.98;;
20976;SDS011;10647;51.016;3.720;2022-10-16T16:27:41;7.05;;;1.42;;
20976;SDS011;10647;51.016;3.720;2022-10-16T16:30:11;8.33;;;1.70;;
20976;SDS011;10647;51.016;3.720;2022-10-16T16:32:38;9.08;;;2.00;;
20976;SDS011;10647;51.016;3.720;2022-10-16T16:35:06;10.05;;;2.22;;
20976;SDS011;10647;51.016;3.720;2022-10-16T16:37:33;4.80;;;1.52;;
20976;SDS011;10647;51.016;3.720;2022-10-16T16:40:01;8.65;;;2.02;;
20976;SDS011;10647;51.016;3.720;2022-10-16T16:42:28;7.30;;;1.70;;
20976;SDS011;10647;51.016;3.720;2022-10-16T16:44:56;12.88;;;2.47;;
20976;SDS011;10647;51.016;3.720;2022-10-16T16:47:24;7.00;;;1.90;;
20976;SDS011;10647;51.016;3.720;2022-10-16T16:49:51;6.58;;;1.77;;
20976;SDS011;10647;51.016;3.720;2022-10-16T16:52:20;8.58;;;1.90;;
20976;SDS011;10647;51.016;3.720;2022-10-16T16:54:48;4.28;;;1.90;;
20976;SDS011;10647;51.016;3.720;2022-10-16T16:57:18;5.97;;;2.30;;
20976;SDS011;10647;51.016;3.720;2022-10-16T16:59:46;6.53;;;1.72;;
20976;SDS011;10647;51.016;3.720;2022-10-16T17:02:15;3.47;;;1.80;;
20976;SDS011;10647;51.016;3.720;2022-10-16T17:04:43;6.92;;;1.95;;
20976;SDS011;10647;51.016;3.720;2022-10-16T17:07:10;6.75;;;2.12;;
20976;SDS011;10647;51.016;3.720;2022-10-16T17:09:38;9.65;;;2.15;;
20976;SDS011;10647;51.016;3.720;2022-10-16T17:12:05;6.85;;;1.90;;
20976;SDS011;10647;51.016;3.720;2022-10-16T17:14:33;7.47;;;2.10;;
20976;SDS011;10647;51.016;3.720;2022-10-16T17:17:01;8.33;;;2.22;;
20976;SDS011;10647;51.016;3.720;2022-10-16T17:19:31;6.37;;;2.47;;